Time;durP1;ratioP1;P1;durP2;ratioP2;P2;SDS_P1;SDS_P2;PMS_P1;PMS_P2;Temp;Humidity;BMP_temperature;BMP_pressure;BME280_temperature;BME280_humidity;BME280_pressure;Samples;Min_cycle;Max_cycle;Signal;HPM_P1;HPM_P2
2023/03/17 00:01:43;;;;;;;6.63;2.40;;;;;;;2.54;65.11;101116.84;5006445;28;20057;-80
2023/03/17 00:04:11;;;;;;;5.70;2.43;;;;;;;2.49;65.68;101101.97;5006143;28;20042;-80
2023/03/17 00:06:40;;;;;;;4.00;2.13;;;;;;;2.44;65.99;101103.63;4989602;28;20050;-81
2023/03/17 00:09:14;;;;;;;7.57;3.40;;;;;;;2.40;66.67;101091.34;4989799;28;20114;-81
2023/03/17 00:11:41;;;;;;;3.95;2.53;;;;;;;2.35;66.86;101090.38;4975362;28;20039;-81
2023/03/17 00:14:08;;;;;;;4.07;2.37;;;;;;;2.42;66.22;101094.88;5006372;28;20030;-81
2023/03/17 00:16:41;;;;;;;3.70;2.70;;;;;;;2.35;67.02;101100.81;4989804;28;20054;-81
2023/03/17 00:19:32;;;;;;;4.23;2.37;;;;;;;2.28;67.40;101097.22;4987478;28;20046;-80
2023/03/17 00:21:59;;;;;;;2.97;2.30;;;;;;;2.29;67.45;101093.75;4995921;28;20051;-81
2023/03/17 00:24:27;;;;;;;6.60;2.63;;;;;;;2.34;67.50;101101.66;4991112;28;20110;-80
2023/03/17 00:26:53;;;;;;;3.73;2.60;;;;;;;2.26;66.70;101107.59;4989849;28;20046;-80
2023/03/17 00:29:20;;;;;;;6.13;3.53;;;;;;;2.14;67.39;101112.56;5006421;28;20041;-81
2023/03/17 00:31:49;;;;;;;4.67;3.20;;;;;;;2.19;66.51;101108.34;4989577;28;20045;-81
2023/03/17 00:34:17;;;;;;;5.97;3.07;;;;;;;2.12;66.93;101111.66;4974227;28;20077;-80
2023/03/17 00:36:49;;;;;;;5.20;2.67;;;;;;;2.15;67.55;101089.97;4989162;28;20038;-80
2023/03/17 00:39:17;;;;;;;5.57;2.20;;;;;;;2.20;67.31;101081.41;5001754;28;20042;-81
2023/03/17 00:41:44;;;;;;;3.73;2.27;;;;;;;2.24;69.36;101080.63;5008796;23;20134;-81
2023/03/17 00:44:13;;;;;;;5.13;2.30;;;;;;;2.03;69.76;101076.72;4961912;28;20233;-80
2023/03/17 00:46:40;;;;;;;4.57;2.97;;;;;;;2.12;68.33;101080.38;4978019;28;20043;-80
2023/03/17 00:49:17;;;;;;;4.50;2.73;;;;;;;2.08;70.03;101068.13;4973169;28;20081;-80
2023/03/17 00:51:45;;;;;;;5.70;2.37;;;;;;;2.14;70.15;101062.16;4971932;28;20125;-80
2023/03/17 00:54:13;;;;;;;5.83;2.60;;;;;;;1.95;70.00;101068.72;4972356;28;20046;-80
2023/03/17 00:56:40;;;;;;;4.60;2.33;;;;;;;2.01;71.28;101045.38;4957211;28;20428;-80
2023/03/17 00:59:28;;;;;;;5.67;2.80;;;;;;;1.96;71.39;101047.91;4956985;28;20055;-81
2023/03/17 01:01:55;;;;;;;4.07;2.27;;;;;;;1.92;72.57;101034.78;4957721;28;20034;-80
2023/03/17 01:04:22;;;;;;;5.73;2.63;;;;;;;2.07;69.64;101048.13;4961535;28;20083;-80
2023/03/17 01:06:50;;;;;;;3.73;2.40;;;;;;;2.05;70.16;101036.78;4942574;29;20055;-80
2023/03/17 01:09:17;;;;;;;5.40;2.83;;;;;;;2.10;69.75;101040.38;4975133;28;20035;-80
2023/03/17 01:11:44;;;;;;;6.97;3.33;;;;;;;2.22;68.88;101038.00;4949101;29;20043;-81
2023/03/17 01:14:11;;;;;;;5.87;3.60;;;;;;;2.26;67.73;101034.59;4947349;28;20137;-81
2023/03/17 01:16:38;;;;;;;4.13;2.53;;;;;;;2.33;68.15;101030.38;4973687;28;20034;-80
2023/03/17 01:19:05;;;;;;;6.87;3.17;;;;;;;2.28;67.61;101031.16;4970464;28;20045;-80
2023/03/17 01:21:32;;;;;;;5.83;2.93;;;;;;;2.33;68.20;101027.78;4969856;28;20042;-80
2023/03/17 01:23:59;;;;;;;6.67;3.07;;;;;;;2.51;67.92;101027.22;4956006;28;20047;-81
2023/03/17 01:26:26;;;;;;;7.73;3.40;;;;;;;2.40;69.70;101016.63;4973465;28;20778;-80
2023/03/17 01:28:52;;;;;;;7.67;3.40;;;;;;;2.43;68.84;101007.97;4956562;28;20043;-80
2023/03/17 01:31:19;;;;;;;9.10;3.40;;;;;;;2.40;69.34;100997.47;4944421;28;20047;-80
2023/03/17 01:33:46;;;;;;;6.67;3.60;;;;;;;2.47;68.71;101001.97;4956657;28;20070;-81
2023/03/17 01:36:12;;;;;;;6.90;3.33;;;;;;;2.61;68.47;100997.88;4973516;28;20050;-81
2023/03/17 01:38:40;;;;;;;5.73;3.50;;;;;;;2.57;68.07;100995.19;4973063;28;20404;-80
2023/03/17 01:41:07;;;;;;;7.97;3.60;;;;;;;2.65;66.76;101001.41;4953380;28;20047;-80
2023/03/17 01:43:33;;;;;;;6.83;3.27;;;;;;;2.66;67.81;100993.59;4958594;28;20050;-80
2023/03/17 01:46:21;;;;;;;8.93;3.80;;;;;;;2.41;69.70;101002.72;4956428;28;20035;-80
2023/03/17 01:49:14;;;;;;;8.00;3.93;;;;;;;2.49;69.99;101000.25;4974018;28;20042;-80
2023/03/17 01:51:50;;;;;;;7.73;3.47;;;;;;;2.56;70.95;100993.41;4968671;28;20039;-81
2023/03/17 01:54:42;;;;;;;6.87;3.90;;;;;;;2.49;69.63;100993.31;4965330;28;20042;-82
2023/03/17 01:57:15;;;;;;;6.93;3.93;;;;;;;2.50;69.78;100984.63;4972056;28;20038;-81
2023/03/17 01:59:54;;;;;;;6.27;4.37;;;;;;;2.43;70.39;100989.72;4972162;28;20046;-80
2023/03/17 02:02:33;;;;;;;10.00;3.90;;;;;;;2.52;70.37;100980.34;4953300;28;20035;-81
2023/03/17 02:05:02;;;;;;;6.30;3.80;;;;;;;2.57;69.90;100961.25;4972254;28;20049;-81
2023/03/17 02:07:29;;;;;;;7.03;3.83;;;;;;;2.55;70.91;100969.06;4987176;28;20054;-80
2023/03/17 02:09:56;;;;;;;7.73;4.00;;;;;;;2.53;69.87;100969.06;4987978;28;20066;-82
2023/03/17 02:12:24;;;;;;;6.10;4.00;;;;;;;2.59;71.24;100973.47;4939408;28;20042;-82
2023/03/17 02:14:52;;;;;;;6.57;4.10;;;;;;;2.54;71.78;100967.31;4936910;28;20052;-80
2023/03/17 02:17:21;;;;;;;5.60;4.00;;;;;;;2.53;71.48;100966.44;4968156;28;20137;-80
2023/03/17 02:19:48;;;;;;;8.03;4.43;;;;;;;2.63;72.15;100956.16;4971036;28;20039;-81
2023/03/17 02:22:17;;;;;;;7.60;4.60;;;;;;;2.55;70.84;100953.44;4952294;28;20039;-80
2023/03/17 02:24:57;;;;;;;7.90;4.50;;;;;;;2.52;72.33;100951.66;4968788;28;20039;-80
2023/03/17 02:27:35;;;;;;;8.63;3.90;;;;;;;2.51;71.82;100944.66;4955159;28;20058;-81
2023/03/17 02:30:05;;;;;;;6.70;4.50;;;;;;;2.55;72.57;100940.38;4954545;28;20035;-80
2023/03/17 02:32:34;;;;;;;8.70;4.30;;;;;;;2.52;71.33;100945.53;4971021;28;20042;-80
2023/03/17 02:35:02;;;;;;;8.47;4.80;;;;;;;2.54;70.60;100938.63;4949813;28;20082;-80
2023/03/17 02:37:29;;;;;;;8.53;4.40;;;;;;;2.62;71.00;100930.94;4936327;29;20051;-80
2023/03/17 02:39:56;;;;;;;10.93;4.90;;;;;;;2.51;72.17;100922.91;4960892;28;20046;-80
2023/03/17 02:42:22;;;;;;;7.93;4.47;;;;;;;2.57;71.35;100922.16;4925959;29;20043;-81
2023/03/17 02:44:49;;;;;;;8.63;4.50;;;;;;;2.63;71.19;100922.25;4936890;28;20054;-80
2023/03/17 02:47:16;;;;;;;9.33;5.07;;;;;;;2.66;72.14;100922.28;4971277;28;20093;-80
2023/03/17 02:49:43;;;;;;;6.17;4.13;;;;;;;2.62;70.67;100924.00;4947003;28;20106;-80
2023/03/17 02:52:09;;;;;;;13.20;5.40;;;;;;;2.63;73.16;100917.91;4943068;29;20055;-80
2023/03/17 02:54:36;;;;;;;8.23;4.00;;;;;;;2.63;73.59;100917.03;4955997;28;20050;-80
2023/03/17 02:57:03;;;;;;;8.27;5.53;;;;;;;2.63;70.78;100919.66;4970728;28;20042;-80
2023/03/17 02:59:30;;;;;;;9.43;4.73;;;;;;;2.68;71.70;100921.44;4951830;28;20032;-80
2023/03/17 03:01:57;;;;;;;8.20;5.00;;;;;;;2.66;70.78;100925.78;4969619;28;20412;-80
2023/03/17 03:04:24;;;;;;;12.03;5.30;;;;;;;2.64;69.99;100931.81;4970368;28;20042;-80
2023/03/17 03:06:52;;;;;;;8.33;4.60;;;;;;;2.70;69.93;100934.53;4969012;28;20039;-80
2023/03/17 03:09:19;;;;;;;6.73;4.23;;;;;;;2.65;71.10;100930.97;4952007;28;20051;-81
2023/03/17 03:11:46;;;;;;;8.20;5.03;;;;;;;2.70;70.01;100925.00;4970319;28;20049;-80
2023/03/17 03:14:13;;;;;;;10.57;5.00;;;;;;;2.69;71.03;100919.72;4954755;28;20046;-80
2023/03/17 03:16:40;;;;;;;8.73;5.30;;;;;;;2.72;70.38;100917.19;4967198;28;20099;-80
2023/03/17 03:19:06;;;;;;;9.97;5.20;;;;;;;2.76;70.11;100918.97;4986626;28;20042;-80
2023/03/17 03:21:33;;;;;;;7.17;4.60;;;;;;;2.81;69.49;100926.00;4935391;28;20047;-81
2023/03/17 03:24:00;;;;;;;9.00;4.77;;;;;;;2.78;69.64;100933.81;4969270;28;20090;-80
2023/03/17 03:26:27;;;;;;;8.70;6.23;;;;;;;2.81;69.13;100948.63;4987239;28;20047;-80
2023/03/17 03:28:56;;;;;;;7.77;4.27;;;;;;;2.79;68.98;100945.13;4954584;28;20061;-81
2023/03/17 03:31:23;;;;;;;4.57;3.60;;;;;;;2.73;68.66;100938.06;4969962;28;20039;-79
2023/03/17 03:33:50;;;;;;;7.83;5.20;;;;;;;2.68;69.74;100941.44;4970665;28;20074;-80
2023/03/17 03:36:17;;;;;;;10.13;4.97;;;;;;;2.71;70.15;100939.78;4949001;28;20416;-80
2023/03/17 03:38:44;;;;;;;8.40;4.63;;;;;;;2.73;69.80;100931.97;4946404;28;20412;-80
2023/03/17 03:41:10;;;;;;;9.70;5.10;;;;;;;2.62;70.69;100937.03;4969903;28;20055;-80
2023/03/17 03:43:37;;;;;;;7.30;4.87;;;;;;;2.71;68.74;100933.69;4970549;28;20507;-80
2023/03/17 03:46:04;;;;;;;9.83;4.90;;;;;;;2.80;69.40;100936.44;4948634;28;20043;-80
2023/03/17 03:48:31;;;;;;;7.17;5.17;;;;;;;2.75;68.43;100932.88;4970651;28;20089;-80
2023/03/17 03:50:59;;;;;;;8.90;4.93;;;;;;;2.81;69.78;100931.25;4924220;28;20039;-80
2023/03/17 03:53:27;;;;;;;7.00;3.93;;;;;;;2.81;69.22;100931.25;4965863;28;20045;-80
2023/03/17 03:55:54;;;;;;;6.80;4.10;;;;;;;2.79;69.93;100932.06;4966710;28;20065;-80
2023/03/17 03:58:21;;;;;;;8.60;4.10;;;;;;;2.73;69.52;100932.84;4969137;28;20046;-80
2023/03/17 04:00:47;;;;;;;6.97;4.67;;;;;;;2.61;69.02;100930.06;4953891;28;20043;-81
2023/03/17 04:03:14;;;;;;;11.47;4.87;;;;;;;2.70;69.00;100922.38;4939579;29;20050;-81
2023/03/17 04:05:41;;;;;;;8.03;4.97;;;;;;;2.68;69.83;100917.97;4958505;28;20049;-80
2023/03/17 04:08:08;;;;;;;8.53;4.63;;;;;;;2.77;69.26;100924.19;4974747;28;20043;-80
2023/03/17 04:10:35;;;;;;;8.10;4.43;;;;;;;2.68;70.05;100920.56;4945027;28;20039;-81
2023/03/17 04:13:01;;;;;;;10.20;4.43;;;;;;;2.66;68.70;100914.47;4973869;28;20587;-80
2023/03/17 04:15:28;;;;;;;7.93;4.40;;;;;;;2.72;68.82;100914.56;4942145;28;20519;-81
2023/03/17 04:17:55;;;;;;;8.43;4.63;;;;;;;2.74;68.37;100918.94;4974601;28;20090;-82
2023/03/17 04:20:21;;;;;;;8.47;4.40;;;;;;;2.67;69.49;100909.25;4989810;28;20042;-80
2023/03/17 04:22:48;;;;;;;9.50;5.03;;;;;;;2.67;69.67;100908.38;4975125;28;20035;-81
2023/03/17 04:25:15;;;;;;;8.23;4.80;;;;;;;2.62;70.17;100910.06;4969941;28;20039;-81
2023/03/17 04:27:41;;;;;;;8.43;4.57;;;;;;;2.57;70.87;100912.59;4975312;28;20035;-80
2023/03/17 04:30:12;;;;;;;7.37;4.03;;;;;;;2.71;69.66;100903.25;4941963;28;20447;-79
2023/03/17 04:32:39;;;;;;;9.17;4.70;;;;;;;2.76;68.96;100901.56;4973688;28;20035;-79
2023/03/17 04:35:08;;;;;;;7.73;4.27;;;;;;;2.67;69.27;100893.63;4941803;29;20043;-81
2023/03/17 04:37:34;;;;;;;10.60;5.43;;;;;;;2.70;69.41;100895.41;4977993;28;20110;-80
2023/03/17 04:40:01;;;;;;;7.97;5.17;;;;;;;2.57;69.92;100896.94;4969932;28;20050;-81
2023/03/17 04:42:31;;;;;;;9.43;4.97;;;;;;;2.55;69.68;100885.63;4962384;28;20034;-81
2023/03/17 04:44:57;;;;;;;9.77;4.40;;;;;;;2.64;69.91;100892.69;4945826;28;20053;-81
2023/03/17 04:47:25;;;;;;;10.53;4.43;;;;;;;2.64;68.12;100885.75;4971972;28;20043;-81
2023/03/17 04:49:51;;;;;;;10.00;4.70;;;;;;;2.63;68.37;100878.78;4989406;28;20134;-81
2023/03/17 04:52:19;;;;;;;7.80;4.40;;;;;;;2.53;69.42;100869.06;4973960;28;20492;-80
2023/03/17 04:54:45;;;;;;;7.73;3.87;;;;;;;2.54;69.79;100891.69;4990786;28;20050;-80
2023/03/17 04:57:12;;;;;;;9.50;4.77;;;;;;;2.56;69.14;100895.19;4957592;28;20492;-80
2023/03/17 04:59:39;;;;;;;8.33;4.53;;;;;;;2.57;68.95;100896.94;4958158;28;20073;-80
2023/03/17 05:02:06;;;;;;;8.43;4.90;;;;;;;2.57;69.33;100896.94;4970097;28;20572;-80
2023/03/17 05:04:33;;;;;;;10.20;4.90;;;;;;;2.44;69.10;100888.06;4989171;28;20046;-79
2023/03/17 05:07:00;;;;;;;8.40;4.77;;;;;;;2.53;69.94;100883.00;4972739;28;20050;-80
2023/03/17 05:09:27;;;;;;;8.90;4.80;;;;;;;2.55;69.49;100885.63;4986548;28;20050;-81
2023/03/17 05:11:54;;;;;;;7.73;4.50;;;;;;;2.52;68.70;100881.25;4971143;28;20041;-81
2023/03/17 05:14:21;;;;;;;9.43;4.70;;;;;;;2.57;68.14;100891.72;4989601;28;20508;-80
2023/03/17 05:16:49;;;;;;;8.77;4.50;;;;;;;2.57;69.12;100885.63;4972122;28;20073;-80
2023/03/17 05:19:22;;;;;;;11.35;4.75;;;;;;;2.42;69.39;100886.25;4957421;28;20496;-80
2023/03/17 05:21:48;;;;;;;8.63;5.00;;;;;;;2.54;68.97;100884.75;4957602;28;20054;-80
2023/03/17 05:24:15;;;;;;;10.37;5.10;;;;;;;2.54;70.56;100876.03;4941022;28;20152;-80
2023/03/17 05:26:42;;;;;;;10.67;4.43;;;;;;;2.54;69.41;100861.25;4958479;28;20066;-80
2023/03/17 05:29:09;;;;;;;12.80;5.97;;;;;;;2.45;70.24;100860.25;4972218;28;20050;-80
2023/03/17 05:31:36;;;;;;;7.33;4.73;;;;;;;2.57;69.57;100867.38;4988822;28;20046;-80
2023/03/17 05:34:03;;;;;;;9.10;4.70;;;;;;;2.60;68.58;100877.84;4957327;28;20063;-80
2023/03/17 05:36:29;;;;;;;7.17;4.83;;;;;;;2.60;68.08;100870.03;4973692;28;20175;-80
2023/03/17 05:38:57;;;;;;;10.50;4.67;;;;;;;2.48;68.50;100858.56;4941016;28;20066;-81
2023/03/17 05:41:24;;;;;;;13.00;4.83;;;;;;;2.57;69.22;100865.66;4953538;28;20134;-80
2023/03/17 05:43:51;;;;;;;8.03;5.13;;;;;;;2.65;69.08;100857.94;4972907;28;20066;-80
2023/03/17 05:46:17;;;;;;;9.00;5.37;;;;;;;2.67;67.90;100856.22;4956448;28;20042;-80
2023/03/17 05:48:46;;;;;;;10.30;5.87;;;;;;;2.68;66.89;100865.78;4965161;28;20063;-80
2023/03/17 05:51:12;;;;;;;9.97;5.30;;;;;;;2.66;67.70;100854.47;4954824;28;20428;-80
2023/03/17 05:53:39;;;;;;;9.70;5.10;;;;;;;2.66;69.34;100857.06;4956219;28;20046;-80
2023/03/17 05:56:06;;;;;;;10.20;5.27;;;;;;;2.70;69.12;100845.84;4972406;28;20047;-80
2023/03/17 05:58:33;;;;;;;10.67;4.93;;;;;;;2.74;68.45;100853.72;4938307;28;20046;-80
2023/03/17 06:01:00;;;;;;;9.33;5.20;;;;;;;2.72;68.34;100857.19;4959467;28;20043;-80
2023/03/17 06:03:27;;;;;;;7.60;5.37;;;;;;;2.81;67.96;100855.56;4973363;28;20042;-80
2023/03/17 06:05:54;;;;;;;10.63;5.30;;;;;;;2.79;68.26;100851.19;4956365;28;20706;-80
2023/03/17 06:08:20;;;;;;;11.67;5.03;;;;;;;2.84;69.45;100857.34;4955864;28;20043;-80
2023/03/17 06:10:47;;;;;;;10.13;5.67;;;;;;;2.84;68.87;100852.13;4955407;28;20045;-79
2023/03/17 06:13:14;;;;;;;11.50;5.33;;;;;;;2.82;68.50;100841.66;4972613;28;20690;-80
2023/03/17 06:15:41;;;;;;;10.33;5.20;;;;;;;2.88;67.97;100842.63;4955979;28;20186;-80
2023/03/17 06:18:11;;;;;;;10.13;5.07;;;;;;;2.96;66.00;100849.69;4994511;28;20042;-80
2023/03/17 06:20:37;;;;;;;10.00;6.00;;;;;;;2.89;65.96;100854.81;4958997;28;20053;-80
2023/03/17 06:23:05;;;;;;;9.00;4.70;;;;;;;2.93;67.18;100848.75;4955232;28;20065;-80
2023/03/17 06:25:33;;;;;;;10.90;5.37;;;;;;;3.03;64.98;100832.38;4956136;28;20047;-80
2023/03/17 06:28:02;;;;;;;8.77;4.67;;;;;;;3.03;66.66;100845.44;4942274;28;20053;-81
2023/03/17 06:30:31;;;;;;;9.53;4.73;;;;;;;2.98;67.49;100844.47;4935983;29;20050;-81
2023/03/17 06:32:59;;;;;;;8.60;4.60;;;;;;;3.05;66.80;100843.72;4945816;28;20045;-81
2023/03/17 06:35:27;;;;;;;8.67;4.83;;;;;;;3.13;66.15;100843.81;4987853;28;20047;-81
2023/03/17 06:37:54;;;;;;;10.23;5.63;;;;;;;3.10;67.63;100850.72;4983135;28;20043;-81
2023/03/17 06:40:21;;;;;;;9.30;5.00;;;;;;;3.14;67.06;100838.59;4958356;28;20615;-81
2023/03/17 06:42:47;;;;;;;10.50;4.90;;;;;;;3.15;65.45;100836.88;4963631;28;20039;-80
2023/03/17 06:45:14;;;;;;;10.83;5.37;;;;;;;3.16;66.78;100836.00;4955063;28;20043;-81
2023/03/17 06:47:41;;;;;;;8.47;4.93;;;;;;;3.22;65.07;100833.47;4970956;28;20066;-80
2023/03/17 06:50:09;;;;;;;8.37;5.07;;;;;;;3.28;65.29;100838.75;4955163;28;20034;-80
2023/03/17 06:52:36;;;;;;;10.10;4.90;;;;;;;3.31;64.49;100846.66;5060098;23;20110;-80
2023/03/17 06:55:04;;;;;;;9.63;4.87;;;;;;;3.38;65.03;100848.47;4974418;28;20045;-79
2023/03/17 06:57:31;;;;;;;7.43;4.70;;;;;;;3.29;64.43;100848.38;4989270;28;20046;-79
2023/03/17 06:59:57;;;;;;;10.87;5.77;;;;;;;3.43;66.18;100846.78;4974587;28;20511;-78
2023/03/17 07:02:25;;;;;;;9.13;4.97;;;;;;;3.54;63.99;100844.31;4974344;28;20503;-78
2023/03/17 07:04:52;;;;;;;20.50;10.90;;;;;;;3.52;62.78;100830.34;4991530;28;20108;-79
2023/03/17 07:07:19;;;;;;;13.67;7.33;;;;;;;3.55;64.97;100836.47;4993029;28;20493;-78
2023/03/17 07:09:46;;;;;;;9.17;5.03;;;;;;;3.75;63.67;100834.06;4983049;28;20142;-79
2023/03/17 07:12:13;;;;;;;8.93;4.90;;;;;;;3.83;64.13;100829.78;4988866;28;20039;-79
2023/03/17 07:14:40;;;;;;;8.87;4.60;;;;;;;3.87;63.44;100828.09;4975212;28;20137;-79
2023/03/17 07:17:11;;;;;;;12.17;5.33;;;;;;;3.97;63.01;100823.84;4987475;28;20049;-79
2023/03/17 07:19:38;;;;;;;9.50;5.03;;;;;;;3.89;61.82;100832.47;4990342;28;20049;-78
2023/03/17 07:22:05;;;;;;;13.27;5.67;;;;;;;4.00;64.01;100829.94;4981407;28;20030;-80
2023/03/17 07:24:32;;;;;;;13.50;8.27;;;;;;;4.09;61.65;100826.53;4976214;28;20075;-79
2023/03/17 07:26:59;;;;;;;10.17;8.23;;;;;;;4.12;62.00;100818.72;4975186;28;20054;-78
2023/03/17 07:29:27;;;;;;;8.27;5.63;;;;;;;4.17;62.82;100803.94;4978096;28;20046;-78
2023/03/17 07:31:53;;;;;;;8.77;5.63;;;;;;;4.21;60.92;100790.91;4970032;28;20159;-78
2023/03/17 07:34:21;;;;;;;12.27;7.33;;;;;;;4.23;60.74;100793.53;4994011;28;20230;-78
2023/03/17 07:36:47;;;;;;;12.60;5.50;;;;;;;4.31;62.77;100784.00;4983328;28;20046;-79
2023/03/17 07:39:14;;;;;;;9.37;5.73;;;;;;;4.43;60.56;100780.59;4991175;28;20057;-79
2023/03/17 07:41:42;;;;;;;8.73;5.20;;;;;;;4.51;60.61;100771.91;4954177;28;20100;-79
2023/03/17 07:44:10;;;;;;;7.63;4.87;;;;;;;4.60;61.02;100765.00;4968365;28;20043;-78
2023/03/17 07:46:37;;;;;;;10.27;5.00;;;;;;;4.66;61.30;100767.66;4990551;28;20417;-79
2023/03/17 07:49:05;;;;;;;7.97;5.20;;;;;;;4.74;58.56;100763.34;4987950;28;20038;-80
2023/03/17 07:51:32;;;;;;;10.87;5.30;;;;;;;4.83;59.41;100779.06;4990317;28;20118;-79
2023/03/17 07:54:02;;;;;;;8.43;5.13;;;;;;;4.99;59.01;100773.03;4991539;28;20512;-79
2023/03/17 07:56:30;;;;;;;8.03;4.73;;;;;;;5.04;61.00;100765.19;4990656;28;20049;-80
2023/03/17 07:58:57;;;;;;;8.10;5.27;;;;;;;5.28;58.71;100757.41;4975199;28;20088;-79
2023/03/17 08:01:25;;;;;;;9.13;4.60;;;;;;;5.46;58.02;100764.44;4974940;28;20035;-79
2023/03/17 08:03:52;;;;;;;8.00;4.27;;;;;;;5.46;58.91;100755.69;4991027;28;20045;-79
2023/03/17 08:06:19;;;;;;;9.50;5.17;;;;;;;5.59;57.70;100753.13;4975426;28;20050;-79
2023/03/17 08:08:45;;;;;;;7.13;4.33;;;;;;;5.58;55.86;100740.00;4959000;28;20507;-79
2023/03/17 08:11:12;;;;;;;7.47;4.03;;;;;;;5.66;57.11;100746.13;4990221;28;20035;-79
2023/03/17 08:13:39;;;;;;;9.37;4.80;;;;;;;5.73;53.85;100745.28;4970940;28;20043;-79
2023/03/17 08:16:06;;;;;;;8.33;4.90;;;;;;;5.75;55.98;100748.75;4955232;28;20057;-79
2023/03/17 08:18:33;;;;;;;6.87;3.97;;;;;;;5.75;56.01;100758.38;4973232;28;20575;-79
2023/03/17 08:21:00;;;;;;;8.23;4.50;;;;;;;5.84;53.69;100761.00;4984620;28;20429;-79
2023/03/17 08:23:27;;;;;;;6.47;3.93;;;;;;;5.91;53.84;100755.78;4971518;28;20069;-80
2023/03/17 08:26:02;;;;;;;7.70;5.03;;;;;;;5.99;53.01;100761.03;4997944;28;20514;-79
2023/03/17 08:28:29;;;;;;;6.67;4.17;;;;;;;6.02;53.78;100739.19;4993307;28;20043;-79
2023/03/17 08:31:11;;;;;;;7.00;4.17;;;;;;;6.07;52.69;100738.31;4963663;28;20042;-79
2023/03/17 08:33:39;;;;;;;6.60;3.77;;;;;;;6.24;52.89;100740.91;4959860;28;20653;-79
2023/03/17 08:36:08;;;;;;;6.80;4.57;;;;;;;6.24;52.41;100743.53;4977407;28;20043;-78
2023/03/17 08:38:36;;;;;;;7.63;4.40;;;;;;;6.35;52.62;100746.13;4977464;28;20069;-79
2023/03/17 08:41:05;;;;;;;7.50;4.00;;;;;;;6.28;52.39;100744.38;4975498;28;20058;-80
2023/03/17 08:43:33;;;;;;;6.63;3.93;;;;;;;6.41;52.75;100739.13;4997497;28;20038;-79
2023/03/17 08:46:06;;;;;;;8.13;4.77;;;;;;;6.53;51.43;100732.09;4999185;28;20038;-79
2023/03/17 08:48:34;;;;;;;7.03;4.27;;;;;;;6.64;52.92;100728.56;4976673;28;20049;-80
2023/03/17 08:51:00;;;;;;;9.70;4.53;;;;;;;6.77;51.44;100732.88;4996349;28;20068;-79
2023/03/17 08:53:28;;;;;;;6.20;3.73;;;;;;;6.78;50.92;100737.25;4982507;28;20491;-79
2023/03/17 08:55:56;;;;;;;5.87;3.83;;;;;;;6.93;51.29;100738.94;4999601;28;20455;-79
2023/03/17 08:58:23;;;;;;;7.77;4.57;;;;;;;7.07;50.12;100727.53;4992797;28;20085;-79
2023/03/17 09:00:51;;;;;;;6.13;3.63;;;;;;;7.19;50.42;100728.31;5000940;28;20040;-80
2023/03/17 09:03:18;;;;;;;6.10;4.20;;;;;;;7.25;50.90;100725.66;4979045;28;20038;-79
2023/03/17 09:05:44;;;;;;;5.83;4.23;;;;;;;7.36;49.48;100722.97;4994599;28;20043;-79
2023/03/17 09:08:11;;;;;;;7.53;3.80;;;;;;;7.43;48.70;100723.78;4991751;28;20042;-79
2023/03/17 09:10:40;;;;;;;8.27;3.80;;;;;;;7.39;50.70;100717.66;4983998;28;20530;-78
2023/03/17 09:13:10;;;;;;;7.93;4.93;;;;;;;7.53;49.46;100718.47;5000347;28;22045;-79
2023/03/17 09:15:37;;;;;;;7.43;4.40;;;;;;;7.60;49.21;100722.78;4999786;28;20045;-79
2023/03/17 09:18:05;;;;;;;9.00;4.57;;;;;;;7.78;47.51;100723.53;4993995;28;20450;-79
2023/03/17 09:20:32;;;;;;;7.93;4.67;;;;;;;7.88;47.04;100712.03;4979640;28;20133;-79
2023/03/17 09:22:59;;;;;;;7.40;4.17;;;;;;;8.06;47.85;100708.38;4995578;28;20060;-79
2023/03/17 09:25:26;;;;;;;7.00;4.23;;;;;;;8.09;48.26;100709.22;5004511;28;20038;-80
2023/03/17 09:27:54;;;;;;;7.73;3.90;;;;;;;8.30;48.50;100700.22;4998265;28;20031;-79
2023/03/17 09:30:21;;;;;;;4.87;3.60;;;;;;;8.35;46.43;100709.00;4992947;28;20210;-77
2023/03/17 09:32:47;;;;;;;7.33;4.27;;;;;;;8.54;45.90;100708.78;4998888;28;20046;-78
2023/03/17 09:35:14;;;;;;;6.37;3.70;;;;;;;8.75;47.75;100698.00;4967586;28;20121;-80
2023/03/17 09:37:41;;;;;;;6.43;3.80;;;;;;;8.97;47.74;100699.47;4993802;28;20059;-78
2023/03/17 09:40:12;;;;;;;8.20;3.83;;;;;;;9.15;46.39;100700.97;4970715;28;20050;-79
2023/03/17 09:43:06;;;;;;;4.00;3.17;;;;;;;9.26;46.04;100692.94;4961043;28;20045;-79
2023/03/17 09:45:38;;;;;;;4.93;3.58;;;;;;;9.47;45.48;100700.50;4992987;28;20042;-78
2023/03/17 09:48:23;;;;;;;16.13;5.57;;;;;;;9.61;45.77;100700.31;4993012;28;20078;-78
2023/03/17 09:50:55;;;;;;;9.80;4.80;;;;;;;9.85;44.51;100702.53;4973697;28;20038;-80
2023/03/17 09:53:32;;;;;;;11.55;4.68;;;;;;;9.91;45.16;100706.81;4975928;28;20050;-78
2023/03/17 09:56:04;;;;;;;6.68;3.65;;;;;;;10.03;43.99;100709.28;4963168;28;20053;-80
2023/03/17 09:58:32;;;;;;;6.43;3.95;;;;;;;9.91;42.94;100703.31;4988948;28;20055;-79
2023/03/17 10:01:00;;;;;;;6.63;3.75;;;;;;;10.03;44.55;100704.00;4965989;28;20072;-81
2023/03/17 10:03:27;;;;;;;5.83;3.80;;;;;;;10.20;44.29;100689.63;5012646;28;20049;-78
2023/03/17 10:06:09;;;;;;;4.75;3.35;;;;;;;10.36;43.50;100688.47;4999552;28;20045;-80
2023/03/17 10:08:47;;;;;;;5.50;3.60;;;;;;;10.57;42.89;100689.81;4981807;28;20054;-79
2023/03/17 10:11:30;;;;;;;4.28;3.20;;;;;;;10.62;44.97;100686.19;4956695;28;20051;-79
2023/03/17 10:14:02;;;;;;;4.93;3.20;;;;;;;10.74;42.84;100690.34;4961058;28;20043;-80
2023/03/17 10:16:52;;;;;;;5.70;3.30;;;;;;;10.68;41.23;100683.44;4976501;28;20040;-80
2023/03/17 10:19:27;;;;;;;4.13;3.35;;;;;;;10.62;41.89;100687.97;4976065;28;20533;-78
2023/03/17 10:22:04;;;;;;;4.72;3.33;;;;;;;10.53;41.26;100688.16;4992632;28;20034;-80
2023/03/17 10:24:31;;;;;;;6.35;3.25;;;;;;;10.52;41.33;100687.28;4978556;28;20388;-78
2023/03/17 10:27:02;;;;;;;4.95;3.13;;;;;;;10.62;42.03;100694.09;4993210;28;20046;-79
2023/03/17 10:29:30;;;;;;;4.03;3.00;;;;;;;10.63;41.77;100694.97;4976665;28;20057;-79
2023/03/17 10:31:57;;;;;;;6.72;3.40;;;;;;;10.77;41.55;100700.00;4992474;28;20035;-79
2023/03/17 10:34:31;;;;;;;7.32;3.25;;;;;;;10.79;40.92;100690.25;4994568;28;20034;-80
2023/03/17 10:37:08;;;;;;;4.70;3.13;;;;;;;10.91;40.79;100696.13;4993339;28;20129;-79
2023/03/17 10:39:45;;;;;;;4.57;3.10;;;;;;;10.99;41.35;100685.41;4993500;28;20048;-80
2023/03/17 10:42:26;;;;;;;6.95;3.72;;;;;;;10.91;39.73;100682.06;4985153;28;20454;-79
2023/03/17 10:44:53;;;;;;;6.82;3.15;;;;;;;10.95;40.99;100678.47;4990921;28;20054;-79
2023/03/17 10:47:36;;;;;;;4.60;3.38;;;;;;;11.02;40.64;100669.50;4991734;28;20034;-79
2023/03/17 10:50:30;;;;;;;56.03;32.47;;;;;;;11.10;40.82;100658.72;4992645;28;20046;-79
2023/03/17 10:53:02;;;;;;;14.57;8.35;;;;;;;11.35;40.03;100645.78;4976462;28;20126;-80
2023/03/17 10:55:37;;;;;;;28.88;17.20;;;;;;;11.51;41.25;100660.41;5008009;28;20042;-78
2023/03/17 10:58:14;;;;;;;7.35;4.55;;;;;;;11.65;40.82;100663.59;5001944;28;20105;-80
2023/03/17 11:01:12;;;;;;;5.65;3.60;;;;;;;11.82;37.96;100656.13;4976033;28;20491;-79
2023/03/17 11:03:39;;;;;;;4.15;3.03;;;;;;;12.04;40.92;100648.50;4987030;28;20039;-78
2023/03/17 11:06:11;;;;;;;5.32;3.53;;;;;;;12.08;39.26;100644.84;4973157;28;20503;-81
2023/03/17 11:08:40;;;;;;;6.28;3.20;;;;;;;12.19;37.90;100641.94;4975820;28;20077;-80
2023/03/17 11:11:25;;;;;;;4.28;3.25;;;;;;;12.17;39.01;100646.38;4968311;28;20143;-79
2023/03/17 11:14:18;;;;;;;5.47;2.83;;;;;;;12.27;36.83;100625.78;4974019;28;20034;-79
2023/03/17 11:16:54;;;;;;;5.00;3.42;;;;;;;12.25;37.48;100623.19;4973166;28;20137;-79
2023/03/17 11:19:29;;;;;;;4.43;3.47;;;;;;;12.40;36.89;100628.06;4972669;28;20042;-79
2023/03/17 11:22:03;;;;;;;4.18;2.80;;;;;;;12.62;38.87;100622.16;4973925;28;20538;-79
2023/03/17 11:24:35;;;;;;;6.85;3.60;;;;;;;12.65;37.08;100620.28;4990162;28;20053;-78
2023/03/17 11:27:11;;;;;;;3.88;2.90;;;;;;;12.65;35.96;100617.63;4975756;28;20476;-80
2023/03/17 11:30:12;;;;;;;4.85;3.08;;;;;;;12.78;38.68;100622.53;4974388;28;20514;-78
2023/03/17 11:32:48;;;;;;;6.43;2.72;;;;;;;12.63;38.13;100621.25;4983537;28;20038;-78
2023/03/17 11:35:37;;;;;;;6.47;5.28;;;;;;;12.82;37.09;100613.59;4975708;28;20069;-78
2023/03/17 11:38:17;;;;;;;4.95;3.10;;;;;;;13.05;35.93;100621.72;4963312;28;20061;-77
2023/03/17 11:41:03;;;;;;;4.68;3.40;;;;;;;13.11;35.58;100610.03;4982763;28;20040;-78
2023/03/17 11:44:05;;;;;;;5.80;3.83;;;;;;;13.26;36.74;100603.41;4984758;28;20034;-79